createdAt,value
2019-05-25T00:02:13.068Z,12.80
2019-05-25T00:04:41.482Z,12.80
2019-05-25T00:07:09.899Z,12.80
2019-05-25T00:09:38.380Z,12.80
2019-05-25T00:12:06.868Z,12.70
2019-05-25T00:14:35.280Z,12.70
2019-05-25T00:17:03.690Z,12.70
2019-05-25T00:19:32.132Z,12.60
2019-05-25T00:22:00.548Z,12.60
2019-05-25T00:24:28.969Z,12.50
2019-05-25T00:26:57.400Z,12.40
2019-05-25T00:29:25.889Z,12.30
2019-05-25T00:31:54.311Z,12.30
2019-05-25T00:34:22.725Z,12.20
2019-05-25T00:36:51.143Z,12.10
2019-05-25T00:39:19.578Z,12.10
2019-05-25T00:41:47.985Z,12.10
2019-05-25T00:44:16.411Z,12.00
2019-05-25T00:46:44.888Z,12.00
2019-05-25T00:49:13.373Z,11.90
2019-05-25T00:51:41.791Z,11.90
2019-05-25T00:54:10.207Z,11.90
2019-05-25T00:56:38.695Z,11.90
2019-05-25T00:59:07.124Z,11.80
2019-05-25T01:01:35.548Z,11.80
2019-05-25T01:04:04.038Z,11.80
2019-05-25T01:06:32.527Z,11.80
2019-05-25T01:09:01.036Z,11.70
2019-05-25T01:11:29.464Z,11.70
2019-05-25T01:13:57.885Z,11.70
2019-05-25T01:16:26.307Z,11.60
2019-05-25T01:18:54.739Z,11.60
2019-05-25T01:21:23.152Z,11.50
2019-05-25T01:23:51.570Z,11.40
2019-05-25T01:26:19.988Z,11.30
2019-05-25T01:28:48.416Z,11.20
2019-05-25T01:31:16.822Z,11.20
2019-05-25T01:33:45.233Z,11.20
2019-05-25T01:36:13.646Z,11.20
2019-05-25T01:38:42.056Z,11.20
2019-05-25T01:41:10.548Z,11.20
2019-05-25T01:43:38.973Z,11.10
2019-05-25T01:46:07.399Z,11.20
2019-05-25T01:48:35.810Z,11.20
2019-05-25T01:51:04.381Z,11.20
2019-05-25T01:53:32.809Z,11.10
2019-05-25T01:56:01.220Z,11.10
2019-05-25T01:58:29.639Z,11.10
2019-05-25T02:00:58.043Z,11.00
2019-05-25T02:03:26.461Z,10.90
2019-05-25T02:05:54.872Z,10.90
2019-05-25T02:08:23.293Z,10.90
2019-05-25T02:10:51.695Z,10.90
2019-05-25T02:13:20.112Z,11.00
2019-05-25T02:15:48.543Z,11.00
2019-05-25T02:18:16.967Z,11.00
2019-05-25T02:20:45.469Z,11.00
2019-05-25T02:23:13.885Z,11.00
2019-05-25T02:25:42.298Z,10.90
2019-05-25T02:28:10.715Z,10.90
2019-05-25T02:30:39.141Z,10.80
2019-05-25T02:33:07.555Z,10.80
2019-05-25T02:35:35.980Z,10.90
2019-05-25T02:38:04.460Z,10.90
2019-05-25T02:40:32.881Z,10.90
2019-05-25T02:43:01.376Z,10.90
2019-05-25T02:45:29.787Z,10.90
2019-05-25T02:47:58.261Z,10.90
2019-05-25T02:50:26.748Z,10.90
2019-05-25T02:52:55.167Z,10.90
2019-05-25T02:55:33.816Z,10.90
2019-05-25T02:57:53.739Z,10.90
2019-05-25T03:00:33.027Z,10.90
2019-05-25T03:03:02.499Z,10.90
2019-05-25T03:05:30.916Z,10.90
2019-05-25T03:07:59.556Z,10.90
2019-05-25T03:10:29.327Z,10.90
2019-05-25T03:12:59.484Z,10.90
2019-05-25T03:15:28.005Z,11.00
2019-05-25T03:17:56.504Z,11.00
2019-05-25T03:20:24.911Z,11.00
2019-05-25T03:22:53.335Z,11.00
2019-05-25T03:25:21.825Z,11.00
2019-05-25T03:27:50.249Z,11.00
2019-05-25T03:30:21.757Z,11.10
2019-05-25T03:32:50.252Z,11.10
2019-05-25T03:35:18.809Z,11.10
2019-05-25T03:37:47.230Z,11.00
2019-05-25T03:40:15.788Z,11.00
2019-05-25T03:42:44.212Z,11.00
2019-05-25T03:45:14.180Z,11.00
2019-05-25T03:47:42.604Z,11.00
2019-05-25T03:50:11.166Z,11.00
2019-05-25T03:52:39.638Z,11.00
2019-05-25T03:55:08.098Z,11.00
2019-05-25T03:57:36.516Z,10.90
2019-05-25T04:00:08.564Z,10.90
2019-05-25T04:02:36.974Z,10.90
2019-05-25T04:05:06.235Z,11.00
2019-05-25T04:07:34.647Z,11.00
2019-05-25T04:10:03.775Z,11.00
2019-05-25T04:12:32.251Z,11.00
2019-05-25T04:15:00.736Z,11.10
2019-05-25T04:17:29.156Z,11.30
2019-05-25T04:19:57.823Z,11.40
2019-05-25T04:22:26.236Z,11.40
2019-05-25T04:24:54.667Z,11.60
2019-05-25T04:27:23.072Z,11.80
2019-05-25T04:29:51.484Z,12.10
2019-05-25T04:32:19.896Z,12.20
2019-05-25T04:34:48.330Z,12.40
2019-05-25T04:37:16.808Z,12.50
2019-05-25T04:39:45.223Z,12.60
2019-05-25T04:42:13.641Z,12.70
2019-05-25T04:44:42.060Z,12.80
2019-05-25T04:47:25.898Z,13.00
2019-05-25T04:49:40.615Z,13.10
2019-05-25T04:52:09.114Z,13.40
2019-05-25T04:54:37.608Z,13.60
2019-05-25T04:57:06.190Z,13.70
2019-05-25T04:59:34.641Z,13.90
2019-05-25T05:02:03.055Z,14.00
2019-05-25T05:04:31.536Z,14.10
2019-05-25T05:06:59.986Z,14.20
2019-05-25T05:09:28.444Z,14.40
2019-05-25T05:11:56.864Z,14.50
2019-05-25T05:14:25.442Z,14.60
2019-05-25T05:16:53.936Z,14.80
2019-05-25T05:19:22.351Z,14.90
2019-05-25T05:21:50.772Z,14.90
2019-05-25T05:24:19.184Z,15.00
2019-05-25T05:26:55.920Z,15.10
2019-05-25T05:29:17.727Z,15.00
2019-05-25T05:31:46.154Z,15.00
2019-05-25T05:34:14.561Z,15.10
2019-05-25T05:36:43.632Z,15.10
2019-05-25T05:39:12.056Z,15.10
2019-05-25T05:41:40.620Z,15.20
2019-05-25T05:44:09.024Z,15.30
2019-05-25T05:46:41.353Z,15.40
2019-05-25T05:49:10.615Z,15.50
2019-05-25T05:51:40.578Z,15.60
2019-05-25T05:54:09.039Z,15.70
2019-05-25T05:56:37.450Z,15.80
2019-05-25T05:59:05.871Z,15.90
2019-05-25T06:01:34.284Z,16.00
2019-05-25T06:04:02.731Z,16.10
2019-05-25T06:06:31.139Z,16.10
2019-05-25T06:08:59.551Z,16.30
2019-05-25T06:11:27.961Z,16.40
2019-05-25T06:13:56.375Z,16.50
2019-05-25T06:16:24.800Z,16.60
2019-05-25T06:18:53.218Z,16.70
2019-05-25T06:21:21.620Z,16.80
2019-05-25T06:23:50.045Z,16.90
2019-05-25T06:26:18.461Z,17.00
2019-05-25T06:28:46.871Z,17.10
2019-05-25T06:31:15.280Z,17.10
2019-05-25T06:33:43.684Z,17.20
2019-05-25T06:36:12.107Z,17.10
2019-05-25T06:38:40.516Z,17.20
2019-05-25T06:41:08.980Z,17.30
2019-05-25T06:43:37.407Z,17.30
2019-05-25T06:46:05.888Z,17.40
2019-05-25T06:48:34.300Z,17.40
2019-05-25T06:51:02.711Z,17.50
2019-05-25T06:53:31.116Z,17.70
2019-05-25T06:55:59.544Z,17.70
2019-05-25T06:58:27.944Z,17.70
2019-05-25T07:00:56.355Z,17.90
2019-05-25T07:03:24.763Z,18.10
2019-05-25T07:05:53.199Z,18.30
2019-05-25T07:08:21.694Z,18.40
2019-05-25T07:10:50.268Z,18.40
2019-05-25T07:13:18.754Z,18.50
2019-05-25T07:15:47.163Z,18.70
2019-05-25T07:18:15.583Z,18.80
2019-05-25T07:20:43.990Z,19.00
2019-05-25T07:23:12.411Z,19.10
2019-05-25T07:25:40.890Z,19.10
2019-05-25T07:28:09.303Z,19.20
2019-05-25T07:30:38.212Z,19.30
2019-05-25T07:33:06.704Z,19.50
2019-05-25T07:35:35.111Z,19.50
2019-05-25T07:38:03.519Z,19.60
2019-05-25T07:40:31.936Z,19.50
2019-05-25T07:43:00.360Z,19.50
2019-05-25T07:45:28.772Z,19.40
2019-05-25T07:47:57.240Z,19.40
2019-05-25T07:50:25.726Z,19.30
2019-05-25T07:52:54.201Z,19.30
2019-05-25T07:55:22.615Z,19.20
2019-05-25T07:57:51.014Z,19.20
2019-05-25T08:00:19.672Z,19.30
2019-05-25T08:02:48.082Z,19.60
2019-05-25T08:05:16.567Z,19.80
2019-05-25T08:07:44.981Z,20.00
2019-05-25T08:10:13.938Z,19.90
2019-05-25T08:12:42.356Z,20.10
2019-05-25T08:15:12.666Z,20.20
2019-05-25T08:17:41.086Z,20.40
2019-05-25T08:20:09.812Z,20.40
2019-05-25T08:22:38.237Z,20.50
2019-05-25T08:25:07.891Z,20.70
2019-05-25T08:27:36.319Z,20.70
2019-05-25T08:30:07.269Z,20.70
2019-05-25T08:32:35.689Z,20.80
2019-05-25T08:35:07.032Z,21.00
2019-05-25T08:37:35.457Z,21.00
2019-05-25T08:40:06.689Z,21.00
2019-05-25T08:42:35.115Z,21.00
2019-05-25T08:45:05.621Z,21.10
2019-05-25T08:47:34.044Z,21.30
2019-05-25T08:50:03.159Z,21.30
2019-05-25T08:52:31.688Z,21.50
2019-05-25T08:55:00.107Z,21.60
2019-05-25T08:57:28.520Z,21.80
2019-05-25T08:59:56.939Z,21.70
2019-05-25T09:02:25.340Z,21.80
2019-05-25T09:04:53.793Z,21.80
2019-05-25T09:07:22.199Z,21.80
2019-05-25T09:09:50.618Z,21.90
2019-05-25T09:12:19.100Z,22.00
2019-05-25T09:14:47.521Z,22.40
2019-05-25T09:17:15.943Z,22.40
2019-05-25T09:19:44.347Z,22.50
2019-05-25T09:22:12.848Z,22.70
2019-05-25T09:24:41.251Z,22.90
2019-05-25T09:27:09.736Z,22.80
2019-05-25T09:29:38.148Z,22.80
2019-05-25T09:32:07.263Z,22.70
2019-05-25T09:34:35.752Z,22.70
2019-05-25T09:37:04.167Z,22.20
2019-05-25T09:39:32.579Z,21.90
2019-05-25T09:42:01.004Z,21.80
2019-05-25T09:44:29.409Z,21.90
2019-05-25T09:46:57.825Z,22.00
2019-05-25T09:49:26.296Z,22.00
2019-05-25T09:51:54.722Z,22.10
2019-05-25T09:54:23.133Z,22.30
2019-05-25T09:56:51.549Z,22.30
2019-05-25T09:59:20.682Z,22.40
2019-05-25T10:01:49.332Z,22.70
2019-05-25T10:04:17.825Z,22.60
2019-05-25T10:06:46.229Z,22.70
2019-05-25T10:09:14.730Z,23.10
2019-05-25T10:11:43.144Z,23.00
2019-05-25T10:14:11.567Z,22.80
2019-05-25T10:16:39.969Z,22.80
2019-05-25T10:19:08.385Z,22.80
2019-05-25T10:21:36.808Z,22.70
2019-05-25T10:24:05.227Z,22.60
2019-05-25T10:26:33.637Z,22.50
2019-05-25T10:29:02.048Z,22.70
2019-05-25T10:31:30.467Z,22.70
2019-05-25T10:33:58.878Z,22.50
2019-05-25T10:36:27.290Z,22.50
2019-05-25T10:38:55.696Z,22.40
2019-05-25T10:41:24.112Z,22.20
2019-05-25T10:43:52.524Z,22.20
2019-05-25T10:46:20.950Z,22.40
2019-05-25T10:48:49.371Z,22.40
2019-05-25T10:51:17.788Z,22.40
2019-05-25T10:53:46.191Z,22.40
2019-05-25T10:56:14.605Z,22.30
2019-05-25T10:58:43.009Z,22.40
2019-05-25T11:01:11.433Z,22.40
2019-05-25T11:03:39.837Z,22.40
2019-05-25T11:06:08.250Z,22.30
2019-05-25T11:08:36.660Z,22.30
2019-05-25T11:11:05.065Z,22.30
2019-05-25T11:13:33.477Z,22.30
2019-05-25T11:16:01.892Z,22.40
2019-05-25T11:18:30.314Z,22.40
2019-05-25T11:20:58.715Z,22.30
2019-05-25T11:23:27.145Z,22.40
2019-05-25T11:25:55.543Z,22.40
2019-05-25T11:28:23.963Z,22.50
2019-05-25T11:30:52.443Z,22.60
2019-05-25T11:33:20.861Z,22.70
2019-05-25T11:35:49.263Z,22.70
2019-05-25T11:38:17.675Z,22.80
2019-05-25T11:40:46.092Z,23.00
2019-05-25T11:43:14.503Z,23.00
2019-05-25T11:45:45.348Z,23.10
2019-05-25T11:48:13.053Z,23.20
2019-05-25T11:50:41.464Z,23.50
2019-05-25T11:53:09.877Z,23.80
2019-05-25T11:55:38.293Z,23.70
2019-05-25T11:58:06.697Z,23.50
2019-05-25T12:00:35.256Z,23.60
2019-05-25T12:03:03.730Z,23.80
2019-05-25T12:05:32.135Z,23.80
2019-05-25T12:08:00.547Z,23.80
2019-05-25T12:10:28.960Z,23.60
2019-05-25T12:12:57.384Z,23.20
2019-05-25T12:15:25.876Z,22.50
2019-05-25T12:17:54.286Z,22.60
2019-05-25T12:20:23.014Z,22.50
2019-05-25T12:22:51.417Z,22.60
2019-05-25T12:25:19.982Z,22.40
2019-05-25T12:27:49.470Z,22.40
2019-05-25T12:30:20.102Z,22.00
2019-05-25T12:32:48.521Z,21.90
2019-05-25T12:35:18.243Z,21.90
2019-05-25T12:37:46.658Z,21.90
2019-05-25T12:40:16.609Z,21.80
2019-05-25T12:42:45.978Z,22.00
2019-05-25T12:45:15.219Z,22.00
2019-05-25T12:47:43.715Z,22.20
2019-05-25T12:50:12.835Z,22.10
2019-05-25T12:52:41.245Z,22.10
2019-05-25T12:55:09.728Z,22.00
2019-05-25T12:57:38.139Z,22.10
2019-05-25T13:00:15.565Z,22.20
2019-05-25T13:02:37.731Z,22.00
2019-05-25T13:05:08.044Z,21.90
2019-05-25T13:07:36.502Z,22.10
2019-05-25T13:10:08.060Z,22.10
2019-05-25T13:12:36.483Z,22.20
2019-05-25T13:15:08.197Z,22.40
2019-05-25T13:17:36.639Z,22.20
2019-05-25T13:20:08.256Z,22.20
2019-05-25T13:22:36.680Z,22.10
2019-05-25T13:25:08.062Z,22.30
2019-05-25T13:27:36.539Z,22.10
2019-05-25T13:30:09.980Z,22.00
2019-05-25T13:32:38.397Z,21.90
2019-05-25T13:35:07.460Z,22.00
2019-05-25T13:37:35.936Z,21.90
2019-05-25T13:40:08.620Z,21.90
2019-05-25T13:42:37.023Z,21.70
2019-05-25T13:45:06.783Z,21.80
2019-05-25T13:47:35.247Z,22.00
2019-05-25T13:50:06.799Z,22.10
2019-05-25T13:52:35.206Z,22.00
2019-05-25T13:55:05.056Z,21.80
2019-05-25T13:57:33.472Z,21.60
2019-05-25T14:00:02.438Z,21.60
2019-05-25T14:02:30.840Z,21.70
2019-05-25T14:04:59.251Z,21.60
2019-05-25T14:07:27.682Z,21.50
2019-05-25T14:09:56.093Z,21.40
2019-05-25T14:12:24.506Z,21.40
2019-05-25T14:14:52.903Z,21.40
2019-05-25T14:17:21.328Z,21.40
2019-05-25T14:19:49.728Z,21.40
2019-05-25T14:22:18.144Z,21.30
2019-05-25T14:24:46.611Z,21.20
2019-05-25T14:27:15.026Z,21.10
2019-05-25T14:29:43.438Z,21.00
2019-05-25T14:32:11.852Z,20.90
2019-05-25T14:34:40.267Z,20.90
2019-05-25T14:37:08.668Z,20.90
2019-05-25T14:39:37.092Z,20.80
2019-05-25T14:42:05.563Z,20.80
2019-05-25T14:44:34.043Z,20.80
2019-05-25T14:47:02.804Z,20.80
2019-05-25T14:49:31.220Z,20.70
2019-05-25T14:51:59.625Z,20.70
2019-05-25T14:54:28.097Z,20.70
2019-05-25T14:56:56.580Z,20.70
2019-05-25T14:59:24.995Z,20.60
2019-05-25T15:02:01.978Z,20.60
2019-05-25T15:04:23.539Z,20.70
2019-05-25T15:06:51.961Z,20.60
2019-05-25T15:09:20.367Z,20.70
2019-05-25T15:11:48.784Z,20.70
2019-05-25T15:14:17.191Z,20.80
2019-05-25T15:16:45.638Z,20.70
2019-05-25T15:19:14.117Z,20.70
2019-05-25T15:21:42.577Z,20.60
2019-05-25T15:24:11.133Z,20.50
2019-05-25T15:26:39.556Z,20.50
2019-05-25T15:29:11.171Z,20.60
2019-05-25T15:31:38.172Z,20.60
2019-05-25T15:34:06.655Z,20.60
2019-05-25T15:36:35.064Z,20.60
2019-05-25T15:39:05.032Z,20.60
2019-05-25T15:41:33.435Z,20.60
2019-05-25T15:44:01.857Z,20.40
2019-05-25T15:46:30.267Z,20.40
2019-05-25T15:48:58.705Z,20.40
2019-05-25T15:51:27.643Z,20.30
2019-05-25T15:53:56.066Z,20.10
2019-05-25T15:56:24.469Z,19.90
2019-05-25T15:58:52.885Z,19.70
2019-05-25T16:01:21.288Z,19.60
2019-05-25T16:03:49.707Z,19.50
2019-05-25T16:06:18.180Z,19.50
2019-05-25T16:08:46.686Z,19.50
2019-05-25T16:11:15.159Z,19.30
2019-05-25T16:13:43.573Z,19.30
2019-05-25T16:16:11.997Z,19.10
2019-05-25T16:18:40.408Z,19.00
2019-05-25T16:21:08.818Z,18.90
2019-05-25T16:23:37.300Z,18.80
2019-05-25T16:26:05.717Z,18.70
2019-05-25T16:28:34.120Z,18.60
2019-05-25T16:31:02.533Z,18.50
2019-05-25T16:33:31.013Z,18.40
2019-05-25T16:35:59.429Z,18.40
2019-05-25T16:38:27.833Z,18.30
2019-05-25T16:40:56.248Z,18.30
2019-05-25T16:43:24.652Z,18.30
2019-05-25T16:45:53.072Z,18.20
2019-05-25T16:48:21.477Z,18.20
2019-05-25T16:50:50.264Z,18.20
2019-05-25T16:53:18.680Z,18.10
2019-05-25T16:55:47.153Z,18.00
2019-05-25T16:58:15.630Z,18.00
2019-05-25T17:00:44.045Z,18.00
2019-05-25T17:03:26.993Z,17.90
2019-05-25T17:05:42.659Z,17.80
2019-05-25T17:08:11.080Z,17.70
2019-05-25T17:10:39.474Z,17.60
2019-05-25T17:13:07.958Z,17.60
2019-05-25T17:15:36.376Z,17.60
2019-05-25T17:18:05.327Z,17.60
2019-05-25T17:20:33.881Z,17.60
2019-05-25T17:23:02.295Z,17.50
2019-05-25T17:25:30.713Z,17.50
2019-05-25T17:27:59.130Z,17.50
2019-05-25T17:30:45.349Z,17.50
2019-05-25T17:33:14.410Z,17.50
2019-05-25T17:35:43.452Z,17.50
2019-05-25T17:38:11.932Z,17.50
2019-05-25T17:40:40.343Z,17.50
2019-05-25T17:43:08.826Z,17.50
2019-05-25T17:45:37.240Z,17.50
2019-05-25T17:48:05.772Z,17.40
2019-05-25T17:50:34.237Z,17.40
2019-05-25T17:53:02.652Z,17.40
2019-05-25T17:55:31.060Z,17.30
2019-05-25T17:57:59.476Z,17.30
2019-05-25T18:00:43.569Z,17.30
2019-05-25T18:03:12.044Z,17.20
2019-05-25T18:05:40.456Z,17.10
2019-05-25T18:08:09.201Z,17.00
2019-05-25T18:10:52.058Z,17.00
2019-05-25T18:13:07.741Z,16.90
2019-05-25T18:15:36.158Z,16.90
2019-05-25T18:18:06.096Z,16.80
2019-05-25T18:20:34.652Z,16.60
2019-05-25T18:23:03.080Z,16.50
2019-05-25T18:25:31.506Z,16.40
2019-05-25T18:27:59.920Z,16.30
2019-05-25T18:30:28.463Z,16.20
2019-05-25T18:32:56.875Z,16.20
2019-05-25T18:35:25.294Z,16.10
2019-05-25T18:37:53.710Z,16.10
2019-05-25T18:40:22.257Z,16.00
2019-05-25T18:42:50.736Z,16.00
2019-05-25T18:45:19.226Z,15.90
2019-05-25T18:47:47.638Z,15.80
2019-05-25T18:50:16.395Z,15.80
2019-05-25T18:52:44.811Z,15.80
2019-05-25T18:55:14.669Z,15.80
2019-05-25T18:57:43.075Z,15.80
2019-05-25T19:00:12.928Z,15.80
2019-05-25T19:02:41.339Z,15.80
2019-05-25T19:05:09.988Z,15.80
2019-05-25T19:07:38.479Z,15.80
2019-05-25T19:10:10.346Z,15.80
2019-05-25T19:12:38.752Z,15.80
2019-05-25T19:15:10.774Z,15.80
2019-05-25T19:17:39.256Z,15.80
2019-05-25T19:20:08.075Z,15.70
2019-05-25T19:22:36.524Z,15.70
2019-05-25T19:25:09.368Z,15.60
2019-05-25T19:27:37.784Z,15.60
2019-05-25T19:30:07.531Z,15.50
2019-05-25T19:32:35.991Z,15.50
2019-05-25T19:35:08.739Z,15.40
2019-05-25T19:37:37.151Z,15.40
2019-05-25T19:40:09.056Z,15.40
2019-05-25T19:42:37.537Z,15.40
2019-05-25T19:45:08.691Z,15.40
2019-05-25T19:47:37.242Z,15.40
2019-05-25T19:50:06.911Z,15.40
2019-05-25T19:52:35.327Z,15.40
2019-05-25T19:55:06.184Z,15.40
2019-05-25T19:57:34.652Z,15.40
2019-05-25T20:00:04.671Z,15.40
2019-05-25T20:02:33.079Z,15.30
2019-05-25T20:05:15.127Z,15.30
2019-05-25T20:07:31.627Z,15.30
2019-05-25T20:10:00.047Z,15.20
2019-05-25T20:12:28.527Z,15.20
2019-05-25T20:14:56.952Z,15.20
2019-05-25T20:17:25.344Z,15.20
2019-05-25T20:19:53.746Z,15.20
2019-05-25T20:22:22.156Z,15.20
2019-05-25T20:24:50.570Z,15.10
2019-05-25T20:27:18.980Z,15.10
2019-05-25T20:29:47.464Z,15.10
2019-05-25T20:32:15.873Z,15.10
2019-05-25T20:34:45.794Z,15.00
2019-05-25T20:37:14.567Z,15.00
2019-05-25T20:39:43.771Z,15.00
2019-05-25T20:42:14.995Z,15.00
2019-05-25T20:44:42.341Z,14.90
2019-05-25T20:47:10.741Z,14.90
2019-05-25T20:49:39.166Z,15.00
2019-05-25T20:52:07.575Z,15.00
2019-05-25T20:54:35.988Z,15.00
2019-05-25T20:57:04.471Z,15.00
2019-05-25T20:59:32.880Z,14.90
2019-05-25T21:02:01.295Z,15.00
2019-05-25T21:04:29.700Z,15.00
2019-05-25T21:06:58.115Z,14.90
2019-05-25T21:09:26.528Z,14.90
2019-05-25T21:11:55.921Z,14.80
2019-05-25T21:14:24.830Z,14.80
2019-05-25T21:16:53.247Z,14.70
2019-05-25T21:19:21.664Z,14.60
2019-05-25T21:21:50.084Z,14.50
2019-05-25T21:24:18.500Z,14.50
2019-05-25T21:26:46.920Z,14.40
2019-05-25T21:29:15.329Z,14.40
2019-05-25T21:31:43.752Z,14.40
2019-05-25T21:34:12.331Z,14.30
2019-05-25T21:36:43.122Z,14.30
2019-05-25T21:39:10.899Z,14.20
2019-05-25T21:41:39.343Z,14.20
2019-05-25T21:44:07.756Z,14.20
2019-05-25T21:46:36.185Z,14.20
2019-05-25T21:49:04.732Z,14.10
2019-05-25T21:51:33.270Z,14.10
2019-05-25T21:54:01.714Z,14.00
2019-05-25T21:56:30.143Z,14.00
2019-05-25T21:58:58.559Z,14.00
2019-05-25T22:01:27.053Z,14.00
2019-05-25T22:03:55.474Z,14.00
2019-05-25T22:06:24.867Z,14.00
2019-05-25T22:08:53.488Z,14.00
2019-05-25T22:11:21.903Z,13.90
2019-05-25T22:13:50.324Z,14.00
2019-05-25T22:16:18.801Z,13.90
2019-05-25T22:18:47.255Z,13.90
2019-05-25T22:21:15.674Z,13.90
2019-05-25T22:23:44.093Z,13.90
2019-05-25T22:26:12.500Z,13.90
2019-05-25T22:28:44.902Z,14.00
2019-05-25T22:31:11.059Z,14.00
2019-05-25T22:33:39.490Z,14.10
2019-05-25T22:36:07.907Z,14.10
2019-05-25T22:38:36.320Z,14.10
2019-05-25T22:41:04.740Z,14.10
2019-05-25T22:43:33.156Z,14.10
2019-05-25T22:46:01.590Z,14.10
2019-05-25T22:48:30.033Z,14.10
2019-05-25T22:50:58.437Z,14.10
2019-05-25T22:53:26.869Z,14.10
2019-05-25T22:55:55.284Z,14.00
2019-05-25T22:58:23.712Z,14.00
2019-05-25T23:00:52.196Z,14.00
2019-05-25T23:03:20.612Z,14.00
2019-05-25T23:05:49.029Z,14.00
2019-05-25T23:08:17.453Z,13.90
2019-05-25T23:10:45.884Z,13.90
2019-05-25T23:13:14.367Z,13.90
2019-05-25T23:15:42.851Z,13.80
2019-05-25T23:18:11.274Z,13.80
2019-05-25T23:20:39.687Z,13.70
2019-05-25T23:23:08.109Z,13.70
2019-05-25T23:25:36.528Z,13.70
2019-05-25T23:28:04.960Z,13.60
2019-05-25T23:30:33.372Z,13.50
2019-05-25T23:33:01.788Z,13.50
2019-05-25T23:35:30.192Z,13.40
2019-05-25T23:37:58.611Z,13.40
2019-05-25T23:40:27.051Z,13.30
2019-05-25T23:42:55.452Z,13.30
2019-05-25T23:45:24.015Z,13.30
2019-05-25T23:47:52.422Z,13.30
2019-05-25T23:50:21.012Z,13.30
2019-05-25T23:52:49.732Z,13.40
2019-05-25T23:55:18.523Z,13.40
2019-05-25T23:57:46.942Z,13.40
